Time;durP1;ratioP1;P1;durP2;ratioP2;P2;SDS_P1;SDS_P2;PMS_P1;PMS_P2;Temp;Humidity;BMP_temperature;BMP_pressure;BME280_temperature;BME280_humidity;BME280_pressure;Samples;Min_cycle;Max_cycle;Signal;HPM_P1;HPM_P2
2022/09/06 00:01:37;;;;;;;;;;;;;;;27.02;34.92;99647.84;4468260;32;34983;-80
2022/09/06 00:04:05;;;;;;;;;;;;;;;26.90;34.95;99638.62;4472907;32;34422;-80
2022/09/06 00:06:32;;;;;;;;;;;;;;;27.09;34.55;99641.28;4483471;32;34145;-84
2022/09/06 00:08:59;;;;;;;;;;;;;;;27.01;34.73;99651.41;4474701;32;33580;-83
2022/09/06 00:11:27;;;;;;;;;;;;;;;27.03;34.59;99642.41;4468562;32;34409;-80
2022/09/06 00:13:54;;;;;;;;;;;;;;;26.60;35.29;99639.09;4471702;32;34907;-81
2022/09/06 00:16:22;;;;;;;;;;;;;;;26.69;35.28;99640.47;4479248;32;33998;-81
2022/09/06 00:18:54;;;;;;;;;;;;;;;26.76;35.17;99643.72;4460936;32;33145;-83
2022/09/06 00:21:22;;;;;;;;;;;;;;;27.09;34.53;99633.31;4479943;32;34800;-81
2022/09/06 00:23:50;;;;;;;;;;;;;;;27.08;34.47;99635.06;4480173;32;34191;-80
2022/09/06 00:26:17;;;;;;;;;;;;;;;27.04;34.40;99633.50;4482626;32;34899;-81
2022/09/06 00:28:44;;;;;;;;;;;;;;;26.65;35.15;99649.53;4471966;32;33127;-85
2022/09/06 00:31:11;;;;;;;;;;;;;;;26.86;34.74;99640.56;4467931;32;34970;-80
2022/09/06 00:33:39;;;;;;;;;;;;;;;26.82;34.88;99659.38;4468381;32;35638;-81
2022/09/06 00:36:07;;;;;;;;;;;;;;;26.86;34.79;99639.72;4467507;32;35396;-80
2022/09/06 00:38:35;;;;;;;;;;;;;;;26.99;34.52;99645.31;4468518;32;34047;-80
2022/09/06 00:41:02;;;;;;;;;;;;;;;27.04;34.44;99646.78;4470904;32;33819;-80
2022/09/06 00:43:30;;;;;;;;;;;;;;;27.03;34.46;99642.41;4481090;32;34157;-81
2022/09/06 00:45:57;;;;;;;;;;;;;;;26.79;35.19;99643.59;4467992;32;34388;-79
2022/09/06 00:48:25;;;;;;;;;;;;;;;26.96;35.05;99653.44;4459017;32;34206;-80
2022/09/06 00:50:53;;;;;;;;;;;;;;;26.93;35.02;99636.69;4467518;32;34317;-86
2022/09/06 00:53:20;;;;;;;;;;;;;;;27.02;34.85;99638.03;4462633;32;34451;-82
2022/09/06 00:55:48;;;;;;;;;;;;;;;26.77;35.26;99648.97;4463225;32;34827;-81
2022/09/06 00:58:15;;;;;;;;;;;;;;;26.66;35.34;99645.91;4456435;32;33856;-81
2022/09/06 01:00:43;;;;;;;;;;;;;;;26.66;35.43;99649.44;4467733;32;33898;-81
2022/09/06 01:03:11;;;;;;;;;;;;;;;26.73;35.36;99651.84;4478508;32;34386;-80
2022/09/06 01:05:41;;;;;;;;;;;;;;;26.56;35.61;99650.81;4470724;32;33942;-80
2022/09/06 01:08:37;;;;;;;;;;;;;;;26.69;35.53;99649.31;4474329;32;34245;-80
2022/09/06 01:11:25;;;;;;;;;;;;;;;26.51;35.81;99641.31;4467569;32;33541;-84
2022/09/06 01:13:52;;;;;;;;;;;;;;;26.54;35.75;99634.06;4447820;32;35200;-81
2022/09/06 01:16:27;;;;;;;;;;;;;;;26.53;35.79;99642.97;4471065;32;34302;-80
2022/09/06 01:19:09;;;;;;;;;;;;;;;26.52;35.80;99635.94;4453586;32;33592;-81
2022/09/06 01:21:49;;;;;;;;;;;;;;;26.62;35.63;99642.53;4456617;32;33845;-81
2022/09/06 01:24:24;;;;;;;;;;;;;;;26.62;35.50;99639.88;4467936;32;35181;-82
2022/09/06 01:26:54;;;;;;;;;;;;;;;26.53;35.62;99637.66;4478549;32;34822;-85
2022/09/06 01:29:32;;;;;;;;;;;;;;;26.61;35.48;99631.97;4482293;32;34471;-81
2022/09/06 01:32:11;;;;;;;;;;;;;;;26.38;35.81;99636.50;4456795;32;33701;-81
2022/09/06 01:34:39;;;;;;;;;;;;;;;26.50;35.72;99632.47;4453661;32;34375;-80
2022/09/06 01:37:13;;;;;;;;;;;;;;;26.44;35.86;99630.94;4452709;32;33666;-80
2022/09/06 01:39:40;;;;;;;;;;;;;;;26.22;36.24;99637.28;4453741;32;33319;-80
2022/09/06 01:42:09;;;;;;;;;;;;;;;26.37;36.07;99625.97;4467895;32;35025;-80
2022/09/06 01:44:37;;;;;;;;;;;;;;;26.27;36.26;99635.25;4467096;32;35309;-80
2022/09/06 01:47:11;;;;;;;;;;;;;;;26.27;36.34;99632.59;4460038;32;33859;-81
2022/09/06 01:49:40;;;;;;;;;;;;;;;26.12;36.70;99645.63;4464062;32;34222;-80
2022/09/06 01:52:13;;;;;;;;;;;;;;;26.24;36.54;99635.37;4482083;32;33633;-80
2022/09/06 01:54:45;;;;;;;;;;;;;;;26.05;36.75;99638.84;4467990;32;35366;-80
2022/09/06 01:57:22;;;;;;;;;;;;;;;26.19;36.62;99623.16;4478981;32;34182;-81
2022/09/06 01:59:49;;;;;;;;;;;;;;;26.23;36.46;99623.91;4458618;32;34716;-80
2022/09/06 02:02:18;;;;;;;;;;;;;;;25.91;37.17;99633.25;4475649;32;34882;-82
2022/09/06 02:04:47;;;;;;;;;;;;;;;26.16;36.69;99620.63;4457964;32;34070;-80
2022/09/06 02:07:19;;;;;;;;;;;;;;;26.16;36.69;99623.28;4452321;32;34940;-86
2022/09/06 02:09:52;;;;;;;;;;;;;;;26.07;36.73;99634.34;4456748;32;33285;-81
2022/09/06 02:12:19;;;;;;;;;;;;;;;25.96;37.07;99637.47;4459823;32;34747;-80
2022/09/06 02:14:58;;;;;;;;;;;;;;;26.14;36.59;99625.19;4466741;32;34452;-82
2022/09/06 02:17:27;;;;;;;;;;;;;;;26.17;36.59;99624.16;4457073;32;35288;-85
2022/09/06 02:19:56;;;;;;;;;;;;;;;26.27;36.30;99620.19;4466101;32;34052;-80
2022/09/06 02:22:24;;;;;;;;;;;;;;;26.05;36.69;99624.69;4461785;32;35189;-80
2022/09/06 02:24:52;;;;;;;;;;;;;;;26.00;36.64;99629.38;4454579;32;34419;-81
2022/09/06 02:27:19;;;;;;;;;;;;;;;26.03;36.54;99624.78;4464142;32;34609;-81
2022/09/06 02:29:46;;;;;;;;;;;;;;;25.67;36.23;99628.03;4474727;32;33500;-79
2022/09/06 02:32:17;;;;;;;;;;;;;;;24.95;37.19;99614.97;4464795;32;34891;-80
2022/09/06 02:34:45;;;;;;;;;;;;;;;25.55;36.73;99620.56;4467282;32;33877;-80
2022/09/06 02:37:12;;;;;;;;;;;;;;;25.78;36.56;99621.41;4463809;32;34210;-80
2022/09/06 02:39:39;;;;;;;;;;;;;;;25.85;36.47;99623.78;4483435;32;34013;-80
2022/09/06 02:42:08;;;;;;;;;;;;;;;26.04;36.09;99618.53;4481912;32;35111;-81
2022/09/06 02:44:35;;;;;;;;;;;;;;;25.82;36.17;99620.37;4459442;32;35262;-82
2022/09/06 02:47:03;;;;;;;;;;;;;;;25.64;35.90;99620.19;4475413;32;34189;-82
2022/09/06 02:49:31;;;;;;;;;;;;;;;25.67;36.52;99617.41;4456210;32;33207;-83
2022/09/06 02:51:58;;;;;;;;;;;;;;;25.59;36.46;99616.88;4467169;32;34114;-81
2022/09/06 02:54:26;;;;;;;;;;;;;;;25.51;36.11;99618.13;4468291;32;35169;-80
2022/09/06 02:56:53;;;;;;;;;;;;;;;25.69;35.91;99623.53;4468249;32;34004;-82
2022/09/06 02:59:20;;;;;;;;;;;;;;;25.30;36.68;99615.41;4467815;32;33309;-80
2022/09/06 03:01:47;;;;;;;;;;;;;;;26.02;35.38;99615.06;4467802;32;34053;-84
2022/09/06 03:04:14;;;;;;;;;;;;;;;25.43;36.06;99610.47;4460990;32;34030;-80
2022/09/06 03:06:42;;;;;;;;;;;;;;;23.86;39.47;99606.63;4468320;32;33866;-80
2022/09/06 03:09:09;;;;;;;;;;;;;;;24.42;38.22;99611.72;4467251;32;33926;-81
2022/09/06 03:11:36;;;;;;;;;;;;;;;23.33;40.65;99607.44;4467854;32;33769;-86
2022/09/06 03:14:04;;;;;;;;;;;;;;;24.21;38.89;99608.91;4467806;32;34095;-80
2022/09/06 03:16:31;;;;;;;;;;;;;;;24.72;38.11;99602.59;4467866;32;34931;-80
2022/09/06 03:18:58;;;;;;;;;;;;;;;24.97;37.79;99609.63;4467501;32;33298;-80
2022/09/06 03:21:25;;;;;;;;;;;;;;;25.46;36.88;99600.59;4469250;32;34932;-80
2022/09/06 03:23:53;;;;;;;;;;;;;;;25.63;36.29;99612.28;4478114;32;34341;-81
2022/09/06 03:26:20;;;;;;;;;;;;;;;25.38;36.54;99607.13;4474327;32;34779;-80
2022/09/06 03:28:49;;;;;;;;;;;;;;;24.00;39.24;99604.34;4474023;32;33130;-80
2022/09/06 03:31:16;;;;;;;;;;;;;;;24.50;38.30;99613.16;4476245;32;34381;-80
2022/09/06 03:33:43;;;;;;;;;;;;;;;24.63;38.20;99608.28;4481902;32;35035;-81
2022/09/06 03:36:10;;;;;;;;;;;;;;;24.36;38.26;99617.19;4482920;32;33987;-80
2022/09/06 03:38:38;;;;;;;;;;;;;;;24.52;38.10;99607.81;4474944;32;32952;-81
2022/09/06 03:41:06;;;;;;;;;;;;;;;23.82;39.29;99607.63;4462640;32;34165;-80
2022/09/06 03:43:33;;;;;;;;;;;;;;;23.91;39.34;99612.63;4483177;31;34114;-81
2022/09/06 03:46:01;;;;;;;;;;;;;;;24.22;38.73;99605.31;4476185;32;34980;-80
2022/09/06 03:48:28;;;;;;;;;;;;;;;24.38;38.16;99608.28;4471181;32;33527;-80
2022/09/06 03:50:56;;;;;;;;;;;;;;;24.30;38.23;99614.78;4462776;32;34858;-81
2022/09/06 03:53:24;;;;;;;;;;;;;;;24.52;37.94;99619.28;4470473;32;34835;-79
2022/09/06 03:55:52;;;;;;;;;;;;;;;24.19;38.42;99616.03;4480779;32;34388;-80
2022/09/06 03:58:20;;;;;;;;;;;;;;;24.61;37.96;99614.53;4483401;32;33417;-80
2022/09/06 04:00:47;;;;;;;;;;;;;;;24.80;37.31;99614.72;4480857;32;34361;-79
2022/09/06 04:03:18;;;;;;;;;;;;;;;23.31;40.17;99620.75;4468138;32;34164;-80
2022/09/06 04:05:45;;;;;;;;;;;;;;;24.60;38.10;99618.13;4476754;31;33858;-81
2022/09/06 04:08:12;;;;;;;;;;;;;;;24.56;37.80;99617.38;4470705;32;33043;-80
2022/09/06 04:10:40;;;;;;;;;;;;;;;23.98;38.45;99614.13;4474522;32;33849;-79
2022/09/06 04:13:07;;;;;;;;;;;;;;;23.57;39.12;99605.81;4471142;32;35208;-80
2022/09/06 04:15:35;;;;;;;;;;;;;;;23.93;38.56;99610.78;4478604;32;34844;-81
2022/09/06 04:18:03;;;;;;;;;;;;;;;23.45;39.37;99611.47;4474116;32;33541;-81
2022/09/06 04:20:35;;;;;;;;;;;;;;;24.11;38.22;99614.56;4473019;32;34194;-83
2022/09/06 04:23:02;;;;;;;;;;;;;;;22.97;40.15;99610.34;4471593;32;35400;-82
2022/09/06 04:25:30;;;;;;;;;;;;;;;24.24;38.11;99615.84;4468812;32;34002;-81
2022/09/06 04:27:57;;;;;;;;;;;;;;;24.80;37.29;99620.00;4473852;32;32891;-85
2022/09/06 04:30:24;;;;;;;;;;;;;;;24.21;37.87;99619.50;4481939;31;35163;-84
2022/09/06 04:32:52;;;;;;;;;;;;;;;24.87;37.02;99621.50;4483179;32;35119;-82
2022/09/06 04:35:19;;;;;;;;;;;;;;;25.08;36.80;99620.69;4468581;32;34148;-83
2022/09/06 04:37:46;;;;;;;;;;;;;;;25.10;36.48;99624.16;4467440;32;33655;-82
2022/09/06 04:40:14;;;;;;;;;;;;;;;24.81;36.94;99619.94;4467486;32;34294;-83
2022/09/06 04:42:41;;;;;;;;;;;;;;;24.04;38.02;99620.06;4467660;32;34806;-82
2022/09/06 04:45:08;;;;;;;;;;;;;;;24.66;36.86;99617.88;4477099;32;35194;-86
2022/09/06 04:47:36;;;;;;;;;;;;;;;24.42;37.67;99615.22;4468325;32;32996;-83
2022/09/06 04:50:03;;;;;;;;;;;;;;;24.30;37.50;99620.09;4468287;32;33874;-82
2022/09/06 04:52:30;;;;;;;;;;;;;;;23.51;39.13;99609.50;4468164;32;33589;-81
2022/09/06 04:54:57;;;;;;;;;;;;;;;23.28;39.23;99618.19;4476629;32;33753;-83
2022/09/06 04:57:25;;;;;;;;;;;;;;;23.53;38.53;99618.28;4469396;32;32909;-82
2022/09/06 04:59:52;;;;;;;;;;;;;;;23.53;38.42;99607.69;4470428;32;33841;-82
2022/09/06 05:02:19;;;;;;;;;;;;;;;22.57;40.13;99608.00;4467378;32;35194;-82
2022/09/06 05:04:46;;;;;;;;;;;;;;;22.64;40.12;99611.34;4466573;32;34229;-82
2022/09/06 05:07:14;;;;;;;;;;;;;;;22.80;40.14;99610.81;4466743;32;33893;-82
2022/09/06 05:09:41;;;;;;;;;;;;;;;23.08;39.33;99610.03;4466903;32;35147;-82
2022/09/06 05:12:08;;;;;;;;;;;;;;;23.76;38.31;99614.88;4467463;32;35212;-82
2022/09/06 05:14:35;;;;;;;;;;;;;;;23.65;38.07;99622.28;4467444;32;34305;-82
2022/09/06 05:17:03;;;;;;;;;;;;;;;23.41;38.32;99618.69;4467313;32;34245;-85
2022/09/06 05:19:30;;;;;;;;;;;;;;;24.14;36.57;99610.03;4467425;32;35006;-82
2022/09/06 05:21:57;;;;;;;;;;;;;;;24.49;35.88;99608.78;4467319;32;34471;-82
2022/09/06 05:24:25;;;;;;;;;;;;;;;23.64;37.58;99607.34;4467043;32;34333;-82
2022/09/06 05:26:52;;;;;;;;;;;;;;;24.35;36.21;99616.31;4467374;32;34187;-82
2022/09/06 05:29:19;;;;;;;;;;;;;;;24.27;36.65;99618.41;4467233;32;34181;-82
2022/09/06 05:31:46;;;;;;;;;;;;;;;24.95;35.34;99616.78;4466954;32;34457;-82
2022/09/06 05:34:14;;;;;;;;;;;;;;;24.13;36.71;99613.63;4467218;32;34439;-82
2022/09/06 05:36:41;;;;;;;;;;;;;;;23.44;37.98;99621.19;4466959;32;33560;-82
2022/09/06 05:39:08;;;;;;;;;;;;;;;23.22;38.38;99615.75;4467113;32;35164;-82
2022/09/06 05:41:35;;;;;;;;;;;;;;;22.48;39.95;99618.84;4467009;32;34160;-82
2022/09/06 05:44:03;;;;;;;;;;;;;;;23.55;38.45;99616.41;4467074;32;34262;-81
2022/09/06 05:46:30;;;;;;;;;;;;;;;23.52;38.16;99616.56;4466885;32;34284;-82
2022/09/06 05:49:06;;;;;;;;;;;;;;;23.05;39.51;99623.34;4467199;32;34085;-81
2022/09/06 05:51:34;;;;;;;;;;;;;;;23.38;39.02;99621.41;4468749;32;35791;-82
2022/09/06 05:54:01;;;;;;;;;;;;;;;24.03;37.85;99620.16;4468643;32;34770;-81
2022/09/06 05:56:28;;;;;;;;;;;;;;;22.92;39.66;99624.62;4469005;32;33960;-81
2022/09/06 05:58:55;;;;;;;;;;;;;;;23.08;39.37;99620.59;4468841;32;33711;-82
2022/09/06 06:01:25;;;;;;;;;;;;;;;22.93;39.41;99614.00;4468714;32;34862;-81
2022/09/06 06:03:54;;;;;;;;;;;;;;;23.49;38.61;99619.28;4454930;32;33660;-81
2022/09/06 06:06:21;;;;;;;;;;;;;;;22.10;40.76;99628.66;4454723;32;33369;-81
2022/09/06 06:08:48;;;;;;;;;;;;;;;23.01;39.55;99614.63;4468958;32;34200;-82
2022/09/06 06:11:16;;;;;;;;;;;;;;;22.80;39.52;99615.25;4468665;32;34495;-82
2022/09/06 06:13:43;;;;;;;;;;;;;;;23.41;39.35;99621.31;4468559;32;35009;-83
2022/09/06 06:16:11;;;;;;;;;;;;;;;23.73;38.05;99620.28;4468745;32;33528;-82
2022/09/06 06:18:38;;;;;;;;;;;;;;;22.87;39.89;99616.78;4454609;32;34031;-82
2022/09/06 06:21:09;;;;;;;;;;;;;;;23.54;38.42;99616.47;4468652;32;34384;-81
2022/09/06 06:23:36;;;;;;;;;;;;;;;23.12;38.97;99622.25;4468623;32;35343;-82
2022/09/06 06:26:04;;;;;;;;;;;;;;;22.44;40.23;99619.84;4468660;32;33494;-82
2022/09/06 06:28:31;;;;;;;;;;;;;;;23.11;39.46;99625.81;4468451;32;35148;-82
2022/09/06 06:30:58;;;;;;;;;;;;;;;23.01;39.36;99627.00;4468623;32;34432;-81
2022/09/06 06:33:26;;;;;;;;;;;;;;;22.05;40.84;99635.84;4468682;32;34743;-82
2022/09/06 06:36:00;;;;;;;;;;;;;;;23.12;39.08;99624.88;4468131;32;33527;-82
2022/09/06 06:38:35;;;;;;;;;;;;;;;22.97;39.28;99628.88;4468931;32;34993;-82
2022/09/06 06:41:02;;;;;;;;;;;;;;;23.68;37.86;99621.38;4468840;32;35220;-82
2022/09/06 06:43:36;;;;;;;;;;;;;;;23.31;38.42;99626.03;4468640;32;34126;-82
2022/09/06 06:46:04;;;;;;;;;;;;;;;23.64;37.73;99620.56;4468898;32;33126;-82
2022/09/06 06:48:33;;;;;;;;;;;;;;;23.82;37.50;99619.09;4468349;32;33525;-82
2022/09/06 06:51:01;;;;;;;;;;;;;;;24.22;36.87;99628.31;4468345;32;34434;-82
2022/09/06 06:53:28;;;;;;;;;;;;;;;24.64;35.68;99628.56;4454276;32;33561;-81
2022/09/06 06:55:55;;;;;;;;;;;;;;;24.48;35.40;99635.34;4454320;32;32935;-82
2022/09/06 06:58:22;;;;;;;;;;;;;;;24.96;35.96;99630.00;4468436;32;34035;-84
2022/09/06 07:00:49;;;;;;;;;;;;;;;25.08;34.11;99636.59;4468137;32;34259;-82
2022/09/06 07:03:17;;;;;;;;;;;;;;;24.27;35.25;99640.47;4468292;32;34228;-82
2022/09/06 07:05:45;;;;;;;;;;;;;;;24.37;35.85;99643.66;4468232;32;34158;-82
2022/09/06 07:08:33;;;;;;;;;;;;;;;24.92;34.42;99635.44;4468156;32;34954;-82
2022/09/06 07:11:00;;;;;;;;;;;;;;;25.88;32.30;99636.06;4468545;32;33753;-81
2022/09/06 07:13:28;;;;;;;;;;;;;;;25.94;32.92;99639.31;4454511;32;34769;-82
2022/09/06 07:16:10;;;;;;;;;;;;;;;25.75;33.14;99643.63;4468138;32;33575;-82
2022/09/06 07:18:41;;;;;;;;;;;;;;;25.91;32.43;99643.87;4454270;32;34893;-82
2022/09/06 07:21:10;;;;;;;;;;;;;;;25.88;32.75;99644.03;4468146;32;34146;-82
2022/09/06 07:23:57;;;;;;;;;;;;;;;25.07;33.73;99650.78;4456420;32;34877;-82
2022/09/06 07:26:33;;;;;;;;;;;;;;;26.10;31.42;99654.59;4468178;32;33940;-82
2022/09/06 07:29:01;;;;;;;;;;;;;;;25.13;32.86;99652.38;4468360;32;34130;-82
2022/09/06 07:31:28;;;;;;;;;;;;;;;25.13;33.41;99650.56;4454131;32;35123;-81
2022/09/06 07:34:16;;;;;;;;;;;;;;;25.44;33.75;99659.97;4468156;32;34492;-82
2022/09/06 07:36:44;;;;;;;;;;;;;;;26.10;32.78;99652.81;4468304;32;34131;-82
2022/09/06 07:39:11;;;;;;;;;;;;;;;26.89;31.96;99650.19;4468238;32;34024;-82
2022/09/06 07:41:38;;;;;;;;;;;;;;;26.33;31.30;99642.94;4468244;32;35314;-82
2022/09/06 07:44:05;;;;;;;;;;;;;;;26.06;31.66;99647.69;4468216;32;35011;-81
2022/09/06 07:46:33;;;;;;;;;;;;;;;26.84;31.77;99642.41;4468022;32;33287;-81
2022/09/06 07:49:02;;;;;;;;;;;;;;;27.16;30.45;99638.28;4468089;32;34904;-82
2022/09/06 07:51:30;;;;;;;;;;;;;;;27.65;31.21;99638.56;4454016;32;34401;-87
2022/09/06 07:53:57;;;;;;;;;;;;;;;27.24;30.85;99650.34;4468113;32;33366;-82
2022/09/06 07:56:44;;;;;;;;;;;;;;;27.42;30.66;99637.00;4468423;32;33378;-82
2022/09/06 07:59:12;;;;;;;;;;;;;;;27.78;29.55;99637.97;4468116;32;34254;-84
2022/09/06 08:01:39;;;;;;;;;;;;;;;28.32;30.14;99644.03;4468144;32;34925;-82
2022/09/06 08:04:08;;;;;;;;;;;;;;;27.30;29.96;99642.06;4468057;32;33865;-87
2022/09/06 08:06:36;;;;;;;;;;;;;;;27.58;30.80;99641.59;4468057;32;34184;-81
2022/09/06 08:09:23;;;;;;;;;;;;;;;26.78;30.81;99657.78;4456168;32;35165;-82
2022/09/06 08:11:51;;;;;;;;;;;;;;;26.40;32.08;99639.97;4467364;32;34278;-84
2022/09/06 08:14:19;;;;;;;;;;;;;;;27.49;30.81;99640.22;4468131;32;34376;-82
2022/09/06 08:16:46;;;;;;;;;;;;;;;27.63;30.82;99637.75;4467802;32;33203;-83
2022/09/06 08:19:14;;;;;;;;;;;;;;;26.78;31.97;99637.38;4467952;32;34139;-85
2022/09/06 08:21:41;;;;;;;;;;;;;;;27.61;31.49;99634.28;4468212;32;34032;-82
2022/09/06 08:24:09;;;;;;;;;;;;;;;28.34;29.86;99628.84;4467915;32;33754;-88
2022/09/06 08:26:41;;;;;;;;;;;;;;;27.95;31.24;99637.94;4467831;32;33232;-82
2022/09/06 08:29:09;;;;;;;;;;;;;;;27.09;31.38;99631.50;4467815;32;34135;-83
2022/09/06 08:31:38;;;;;;;;;;;;;;;27.28;31.35;99633.31;4467513;32;34428;-83
2022/09/06 08:34:05;;;;;;;;;;;;;;;28.03;31.30;99634.87;4467799;32;34944;-81
2022/09/06 08:36:32;;;;;;;;;;;;;;;27.99;30.61;99628.00;4467825;32;33561;-83
2022/09/06 08:39:00;;;;;;;;;;;;;;;28.20;30.85;99615.38;4467910;32;34267;-83
2022/09/06 08:41:37;;;;;;;;;;;;;;;28.38;30.88;99622.44;4467784;32;34351;-82
2022/09/06 08:44:05;;;;;;;;;;;;;;;28.36;30.65;99621.59;4467655;32;34113;-82
2022/09/06 08:46:57;;;;;;;;;;;;;;;28.17;31.33;99627.03;4467361;32;33305;-82
2022/09/06 08:49:25;;;;;;;;;;;;;;;28.75;29.58;99623.09;4453578;32;35007;-82
2022/09/06 08:51:59;;;;;;;;;;;;;;;27.64;30.65;99623.50;4453274;32;34194;-82
2022/09/06 08:54:28;;;;;;;;;;;;;;;28.09;31.29;99627.44;4453474;32;35304;-82
2022/09/06 08:57:00;;;;;;;;;;;;;;;28.38;30.88;99618.91;4467655;32;33740;-82
2022/09/06 08:59:27;;;;;;;;;;;;;;;28.38;30.24;99619.75;4453445;32;35146;-84
2022/09/06 09:02:08;;;;;;;;;;;;;;;28.99;28.98;99620.94;4453494;32;34356;-86
2022/09/06 09:04:37;;;;;;;;;;;;;;;28.13;30.15;99614.81;4453659;32;35075;-82
2022/09/06 09:07:31;;;;;;;;;;;;;;;28.09;30.57;99619.44;4453430;32;33466;-87
2022/09/06 09:09:58;;;;;;;;;;;;;;;28.24;32.04;99612.44;4465398;32;34319;-87
2022/09/06 09:12:26;;;;;;;;;;;;;;;27.58;32.48;99617.63;4453682;32;34223;-88
2022/09/06 09:14:54;;;;;;;;;;;;;;;28.07;30.72;99609.78;4453263;32;34057;-83
2022/09/06 09:17:24;;;;;;;;;;;;;;;28.04;31.05;99608.19;4453481;32;32826;-83
2022/09/06 09:19:51;;;;;;;;;;;;;;;28.10;31.12;99605.16;4467429;32;35069;-82
2022/09/06 09:22:18;;;;;;;;;;;;;;;27.69;32.50;99601.09;4467516;32;34310;-82
2022/09/06 09:24:46;;;;;;;;;;;;;;;28.25;32.11;99595.50;4466029;32;34299;-86
2022/09/06 09:27:15;;;;;;;;;;;;;;;27.43;32.52;99597.94;4467586;32;33065;-82
2022/09/06 09:29:51;;;;;;;;;;;;;;;28.27;31.17;99590.97;4466927;32;35098;-82
2022/09/06 09:32:40;;;;;;;;;;;;;;;27.85;31.92;99594.09;4467172;32;34044;-84
2022/09/06 09:35:22;;;;;;;;;;;;;;;28.45;30.49;99581.16;4453533;32;34594;-82
2022/09/06 09:38:09;;;;;;;;;;;;;;;28.74;30.91;99574.19;4467031;32;34241;-84
2022/09/06 09:40:48;;;;;;;;;;;;;;;28.55;30.26;99585.03;4453489;32;34010;-87
2022/09/06 09:43:18;;;;;;;;;;;;;;;28.23;31.70;99578.75;4466951;32;35165;-82
2022/09/06 09:45:45;;;;;;;;;;;;;;;29.52;29.62;99568.91;4466982;32;34338;-88
2022/09/06 09:48:15;;;;;;;;;;;;;;;29.63;29.66;99571.00;4453007;32;33737;-82
2022/09/06 09:50:43;;;;;;;;;;;;;;;29.61;30.52;99570.22;4466939;32;35097;-83
2022/09/06 09:53:11;;;;;;;;;;;;;;;29.71;29.91;99563.38;4466866;32;34266;-83
2022/09/06 09:55:38;;;;;;;;;;;;;;;29.52;30.54;99561.75;4452946;32;34053;-83
2022/09/06 09:58:06;;;;;;;;;;;;;;;29.71;30.36;99566.03;4466642;32;33303;-87
2022/09/06 10:00:35;;;;;;;;;;;;;;;30.02;28.76;99554.34;4452925;32;34580;-82
2022/09/06 10:03:11;;;;;;;;;;;;;;;29.61;29.46;99564.84;4467071;32;35410;-82
2022/09/06 10:05:39;;;;;;;;;;;;;;;30.08;28.91;99553.97;4466874;32;35116;-83
2022/09/06 10:08:08;;;;;;;;;;;;;;;30.04;29.34;99545.28;4466898;32;33220;-83
2022/09/06 10:10:40;;;;;;;;;;;;;;;29.79;30.31;99540.56;4452418;32;34248;-82
2022/09/06 10:13:20;;;;;;;;;;;;;;;30.98;28.90;99534.88;4452641;32;34981;-88
2022/09/06 10:15:48;;;;;;;;;;;;;;;30.41;29.40;99528.78;4466536;32;33821;-85
2022/09/06 10:18:17;;;;;;;;;;;;;;;30.53;29.23;99534.22;4452648;32;33561;-83
2022/09/06 10:20:49;;;;;;;;;;;;;;;29.28;31.21;99550.72;4466520;32;34519;-83
2022/09/06 10:23:36;;;;;;;;;;;;;;;30.26;29.92;99525.25;4452191;32;34317;-84
2022/09/06 10:26:42;;;;;;;;;;;;;;;30.74;29.61;99526.66;4466213;32;34015;-83
2022/09/06 10:29:10;;;;;;;;;;;;;;;30.47;30.00;99531.94;4466564;32;33474;-87
2022/09/06 10:31:37;;;;;;;;;;;;;;;31.26;28.30;99528.59;4452301;32;34349;-87
2022/09/06 10:34:23;;;;;;;;;;;;;;;29.70;30.79;99529.56;4466471;32;34483;-82
2022/09/06 10:36:55;;;;;;;;;;;;;;;29.33;31.00;99534.41;4468114;32;34135;-83
2022/09/06 10:39:40;;;;;;;;;;;;;;;30.63;29.75;99525.59;4454828;32;33474;-83
2022/09/06 10:42:19;;;;;;;;;;;;;;;31.12;29.08;99515.25;4468296;32;35013;-83
2022/09/06 10:44:49;;;;;;;;;;;;;;;29.76;30.60;99510.50;4454896;32;34172;-90
2022/09/06 10:47:17;;;;;;;;;;;;;;;30.33;29.64;99507.88;4468609;32;34858;-82
2022/09/06 10:49:45;;;;;;;;;;;;;;;30.79;28.96;99507.59;4454318;32;32938;-83
2022/09/06 10:52:13;;;;;;;;;;;;;;;29.65;30.82;99511.13;4468389;32;34301;-87
2022/09/06 10:54:45;;;;;;;;;;;;;;;30.38;30.38;99518.25;4454606;32;34431;-87
2022/09/06 10:57:22;;;;;;;;;;;;;;;31.29;29.61;99522.13;4468345;32;35078;-87
2022/09/06 11:00:13;;;;;;;;;;;;;;;31.59;28.59;99519.22;4456984;32;33838;-82
2022/09/06 11:02:47;;;;;;;;;;;;;;;30.92;28.59;99511.22;4454456;32;34306;-83
2022/09/06 11:05:17;;;;;;;;;;;;;;;30.41;30.15;99526.97;4468277;32;34064;-86
2022/09/06 11:08:32;;;;;;;;;;;;;;;31.01;29.67;99525.81;4456730;32;34351;-83
2022/09/06 11:11:27;;;;;;;;;;;;;;;31.80;29.34;99518.72;4468246;32;33253;-87
2022/09/06 11:13:54;;;;;;;;;;;;;;;32.06;27.73;99522.31;4468155;32;35019;-83
2022/09/06 11:16:23;;;;;;;;;;;;;;;32.02;27.67;99504.72;4468292;32;34465;-88
2022/09/06 11:19:12;;;;;;;;;;;;;;;32.23;28.05;99500.50;4468374;32;34023;-87
2022/09/06 11:22:06;;;;;;;;;;;;;;;32.49;28.38;99497.81;4468429;32;34171;-87
2022/09/06 11:24:42;;;;;;;;;;;;;;;31.88;28.03;99498.50;4466231;32;34954;-84
2022/09/06 11:27:25;;;;;;;;;;;;;;;32.27;28.00;99504.66;4468553;32;34074;-83
2022/09/06 11:29:55;;;;;;;;;;;;;;;32.72;27.30;99499.66;4468521;32;34210;-84
2022/09/06 11:32:25;;;;;;;;;;;;;;;33.05;26.57;99485.59;4454769;32;33385;-87
2022/09/06 11:34:53;;;;;;;;;;;;;;;32.49;26.76;99487.06;4467884;32;34111;-86
2022/09/06 11:37:29;;;;;;;;;;;;;;;33.07;26.47;99480.09;4454216;32;34283;-87
2022/09/06 11:40:11;;;;;;;;;;;;;;;32.20;27.01;99482.81;4467894;32;33893;-82
2022/09/06 11:42:55;;;;;;;;;;;;;;;31.73;27.90;99483.44;4456191;32;34155;-87
2022/09/06 11:45:37;;;;;;;;;;;;;;;32.66;27.65;99482.19;4467999;32;35098;-83
2022/09/06 11:48:33;;;;;;;;;;;;;;;32.50;27.40;99484.25;4452984;32;34520;-83
2022/09/06 11:51:05;;;;;;;;;;;;;;;32.40;26.43;99467.97;4463539;32;34197;-86
2022/09/06 11:53:33;;;;;;;;;;;;;;;32.51;27.75;99469.88;4453913;32;33622;-82
2022/09/06 11:56:01;;;;;;;;;;;;;;;31.06;28.40;99475.47;4453909;32;34107;-82
2022/09/06 11:58:40;;;;;;;;;;;;;;;32.03;28.26;99458.16;4468053;32;34290;-85
2022/09/06 12:01:10;;;;;;;;;;;;;;;31.62;27.77;99464.56;4467946;32;34312;-87
2022/09/06 12:03:47;;;;;;;;;;;;;;;32.02;27.64;99449.25;4468165;32;33195;-82
2022/09/06 12:06:44;;;;;;;;;;;;;;;32.08;27.89;99450.63;4467852;32;35174;-87
2022/09/06 12:09:30;;;;;;;;;;;;;;;32.05;27.79;99445.47;4453838;32;35200;-83
2022/09/06 12:11:57;;;;;;;;;;;;;;;31.50;27.59;99442.16;4468020;32;35114;-85
2022/09/06 12:14:31;;;;;;;;;;;;;;;31.69;28.40;99444.41;4454091;32;32820;-82
2022/09/06 12:16:59;;;;;;;;;;;;;;;31.19;28.98;99438.03;4468147;32;33419;-87
2022/09/06 12:19:45;;;;;;;;;;;;;;;31.70;29.44;99435.41;4467925;32;34387;-88
2022/09/06 12:22:36;;;;;;;;;;;;;;;32.21;27.71;99440.75;4467759;32;35182;-83
2022/09/06 12:25:41;;;;;;;;;;;;;;;31.72;27.03;99425.44;4467836;32;33724;-88
2022/09/06 12:28:11;;;;;;;;;;;;;;;32.76;26.07;99428.63;4467751;32;34799;-89
2022/09/06 12:30:40;;;;;;;;;;;;;;;31.67;26.94;99420.41;4453590;32;34433;-83
2022/09/06 12:33:14;;;;;;;;;;;;;;;32.82;26.42;99414.78;4467954;32;34246;-85
2022/09/06 12:35:41;;;;;;;;;;;;;;;33.04;28.07;99407.81;4467745;32;34335;-82
2022/09/06 12:38:24;;;;;;;;;;;;;;;32.87;25.40;99406.34;4467773;32;34294;-83
2022/09/06 12:40:57;;;;;;;;;;;;;;;32.60;26.43;99410.16;4467894;32;34373;-87
2022/09/06 12:43:24;;;;;;;;;;;;;;;31.84;27.03;99405.81;4467696;32;34224;-81
2022/09/06 12:45:51;;;;;;;;;;;;;;;30.99;28.38;99405.44;4468250;32;33158;-82
2022/09/06 12:48:26;;;;;;;;;;;;;;;31.25;27.93;99403.66;4454218;32;33802;-82
2022/09/06 12:51:04;;;;;;;;;;;;;;;31.80;27.92;99404.31;4453645;32;34251;-83
2022/09/06 12:53:33;;;;;;;;;;;;;;;32.36;28.77;99395.84;4467377;32;34378;-82
2022/09/06 12:56:04;;;;;;;;;;;;;;;31.44;27.58;99389.88;4467810;32;33630;-82
2022/09/06 12:58:31;;;;;;;;;;;;;;;31.93;27.87;99383.72;4467317;32;35219;-83
2022/09/06 13:01:11;;;;;;;;;;;;;;;32.33;26.70;99375.44;4453386;32;33879;-82
2022/09/06 13:03:39;;;;;;;;;;;;;;;32.12;27.96;99382.38;4467546;32;34151;-82
2022/09/06 13:06:17;;;;;;;;;;;;;;;32.89;25.61;99367.69;4453379;32;33449;-83
2022/09/06 13:08:48;;;;;;;;;;;;;;;31.30;28.07;99367.66;4454000;32;34980;-83